Search for the current weather situation

Metar

Metar
TNCM 201400Z 09009KT 060V140 9999 SCT020 30/22 Q1013 NOSIG RMK A2994
Decoded Metar

TAF

TAF
TNCM 201400Z 09009KT 060V140 9999 SCT020 30/22 Q1013 NOSIG RMK A2994
Decoded TAF
Top